createdAt,value
2023-01-20T00:01:27.621Z,57.33
2023-01-20T00:03:55.961Z,55.60
2023-01-20T00:06:24.449Z,58.83
2023-01-20T00:08:57.762Z,58.92
2023-01-20T00:11:25.470Z,62.22
2023-01-20T00:13:57.106Z,62.88
2023-01-20T00:16:25.102Z,62.00
2023-01-20T00:18:52.575Z,63.75
2023-01-20T00:21:19.835Z,60.22
2023-01-20T00:23:47.924Z,60.97
2023-01-20T00:26:17.416Z,69.30
2023-01-20T00:28:46.752Z,63.42
2023-01-20T00:31:18.335Z,65.30
2023-01-20T00:33:46.127Z,60.90
2023-01-20T00:36:14.770Z,60.55
2023-01-20T00:38:41.763Z,57.92
2023-01-20T00:41:09.551Z,60.15
2023-01-20T00:43:36.704Z,57.60
2023-01-20T00:46:05.092Z,59.08
2023-01-20T00:48:32.045Z,66.40
2023-01-20T00:50:59.197Z,57.70
2023-01-20T00:53:26.358Z,60.22
2023-01-20T00:55:53.159Z,60.63
2023-01-20T00:58:20.057Z,57.92
2023-01-20T01:00:48.370Z,62.85
2023-01-20T01:03:15.939Z,58.30
2023-01-20T01:05:42.921Z,55.03
2023-01-20T01:08:09.744Z,59.45
2023-01-20T01:10:36.484Z,59.05
2023-01-20T01:13:04.389Z,59.00
2023-01-20T01:15:31.213Z,61.72
2023-01-20T01:17:59.378Z,58.55
2023-01-20T01:20:27.531Z,60.05
2023-01-20T01:22:54.773Z,63.30
2023-01-20T01:25:21.795Z,55.70
2023-01-20T01:27:48.812Z,55.80
2023-01-20T01:30:15.732Z,55.92
2023-01-20T01:32:42.540Z,51.42
2023-01-20T01:35:09.310Z,56.15
2023-01-20T01:37:36.152Z,53.03
2023-01-20T01:40:02.991Z,47.90
2023-01-20T01:42:29.761Z,49.40
2023-01-20T01:45:12.281Z,45.00
2023-01-20T01:47:48.250Z,46.22
2023-01-20T01:50:43.495Z,46.65
2023-01-20T01:53:10.527Z,49.03
2023-01-20T01:55:43.845Z,43.25
2023-01-20T01:58:14.687Z,48.53
2023-01-20T02:03:10.100Z,47.30
2023-01-20T02:05:38.628Z,46.95
2023-01-20T02:08:08.291Z,39.97
2023-01-20T02:10:35.101Z,47.80
2023-01-20T02:13:02.666Z,44.97
2023-01-20T02:15:42.470Z,44.20
2023-01-20T02:18:24.693Z,44.80
2023-01-20T02:21:33.996Z,46.47
2023-01-20T02:24:28.222Z,37.90
2023-01-20T02:26:58.699Z,45.92
2023-01-20T02:29:45.483Z,44.20
2023-01-20T02:32:28.184Z,41.78
2023-01-20T02:35:21.851Z,43.65
2023-01-20T02:38:10.444Z,46.80
2023-01-20T02:41:24.283Z,45.67
2023-01-20T02:44:00.570Z,45.90
2023-01-20T02:46:38.484Z,46.08
2023-01-20T02:49:18.413Z,44.83
2023-01-20T02:51:53.692Z,45.17
2023-01-20T02:54:23.557Z,46.72
2023-01-20T02:56:53.017Z,47.83
2023-01-20T02:59:28.349Z,46.00
2023-01-20T03:02:09.639Z,46.25
2023-01-20T03:04:50.295Z,44.97
2023-01-20T03:07:23.733Z,45.15
2023-01-20T03:09:55.417Z,45.70
2023-01-20T03:12:35.480Z,46.10
2023-01-20T03:15:04.135Z,48.92
2023-01-20T03:17:32.728Z,41.97
2023-01-20T03:20:00.418Z,42.92
2023-01-20T03:22:29.906Z,44.25
2023-01-20T03:25:00.845Z,42.92
2023-01-20T03:27:27.909Z,45.10
2023-01-20T03:29:54.764Z,45.33
2023-01-20T03:32:26.833Z,44.47
2023-01-20T03:34:55.989Z,44.28
2023-01-20T03:37:23.442Z,47.60
2023-01-20T03:39:51.836Z,47.65
2023-01-20T03:42:30.960Z,47.50
2023-01-20T03:45:06.242Z,48.25
2023-01-20T03:47:44.017Z,43.30
2023-01-20T03:50:37.575Z,48.05
2023-01-20T03:53:27.825Z,47.50
2023-01-20T03:56:06.714Z,48.20
2023-01-20T03:58:37.651Z,45.40
2023-01-20T04:01:18.179Z,48.65
2023-01-20T04:03:49.870Z,51.78
2023-01-20T04:06:19.533Z,43.28
2023-01-20T04:08:54.555Z,48.63
2023-01-20T04:11:22.876Z,49.85
2023-01-20T04:13:51.024Z,50.95
2023-01-20T04:16:20.092Z,56.25
2023-01-20T04:18:50.381Z,54.83
2023-01-20T04:21:36.618Z,48.45
2023-01-20T04:24:03.383Z,57.78
2023-01-20T04:26:30.363Z,57.08
2023-01-20T04:28:57.486Z,57.40
2023-01-20T04:31:30.494Z,56.80
2023-01-20T04:33:57.781Z,56.92
2023-01-20T04:36:24.593Z,54.67
2023-01-20T04:38:51.404Z,56.42
2023-01-20T04:41:18.541Z,55.42
2023-01-20T04:43:46.872Z,60.35
2023-01-20T04:46:15.811Z,54.67
2023-01-20T04:48:47.321Z,61.50
2023-01-20T04:51:14.215Z,57.65
2023-01-20T04:53:41.200Z,61.78
2023-01-20T04:56:15.383Z,61.42
2023-01-20T04:58:42.927Z,61.70
2023-01-20T05:01:10.000Z,64.30
2023-01-20T05:03:37.427Z,60.53
2023-01-20T05:06:06.537Z,71.47
2023-01-20T05:08:34.899Z,67.55
2023-01-20T05:11:01.803Z,64.80
2023-01-20T05:13:28.792Z,57.97
2023-01-20T05:15:55.978Z,62.33
2023-01-20T05:18:22.941Z,61.60
2023-01-20T05:20:50.311Z,67.38
2023-01-20T05:23:17.495Z,61.30
2023-01-20T05:25:51.137Z,67.93
2023-01-20T05:28:18.772Z,69.65
2023-01-20T05:30:46.908Z,67.18
2023-01-20T05:33:15.783Z,70.68
2023-01-20T05:35:44.419Z,68.43
2023-01-20T05:38:12.057Z,73.90
2023-01-20T05:40:42.337Z,72.90
2023-01-20T05:43:10.270Z,76.93
2023-01-20T05:45:39.899Z,73.65
2023-01-20T05:48:07.116Z,74.97
2023-01-20T05:50:34.865Z,74.15
2023-01-20T05:53:01.772Z,78.22
2023-01-20T05:55:36.700Z,76.38
2023-01-20T05:58:05.665Z,78.95
2023-01-20T06:00:35.776Z,77.18
2023-01-20T06:03:05.012Z,83.40
2023-01-20T06:05:38.169Z,86.25
2023-01-20T06:08:07.250Z,87.07
2023-01-20T06:10:34.193Z,81.30
2023-01-20T06:13:03.594Z,83.88
2023-01-20T06:15:30.601Z,81.43
2023-01-20T06:17:59.659Z,82.32
2023-01-20T06:20:36.676Z,79.22
2023-01-20T06:23:04.114Z,82.75
2023-01-20T06:25:35.807Z,86.00
2023-01-20T06:28:03.806Z,93.25
2023-01-20T06:30:31.413Z,80.68
2023-01-20T06:32:59.898Z,80.05
2023-01-20T06:35:29.509Z,73.13
2023-01-20T06:37:59.794Z,76.20
2023-01-20T06:40:33.701Z,92.50
2023-01-20T06:43:01.329Z,81.70
2023-01-20T06:45:32.068Z,76.03
2023-01-20T06:50:26.253Z,75.30
2023-01-20T06:52:57.134Z,74.88
2023-01-20T06:55:27.613Z,80.20
2023-01-20T06:57:54.746Z,77.20
2023-01-20T07:00:28.505Z,84.15
2023-01-20T07:03:14.032Z,85.22
2023-01-20T07:05:41.505Z,82.82
2023-01-20T07:08:13.859Z,82.38
2023-01-20T07:10:42.170Z,77.65
2023-01-20T07:13:15.625Z,79.47
2023-01-20T07:15:43.585Z,77.97
2023-01-20T07:18:13.594Z,75.65
2023-01-20T07:20:43.625Z,75.85
2023-01-20T07:23:11.031Z,83.57
2023-01-20T07:25:43.529Z,72.78
2023-01-20T07:28:13.007Z,73.78
2023-01-20T07:30:46.143Z,80.47
2023-01-20T07:33:14.519Z,69.25
2023-01-20T07:35:45.253Z,81.35
2023-01-20T07:38:17.267Z,74.72
2023-01-20T07:40:44.700Z,71.63
2023-01-20T07:43:13.905Z,68.57
2023-01-20T07:45:46.234Z,61.28
2023-01-20T07:48:20.549Z,72.03
2023-01-20T07:50:47.980Z,70.60
2023-01-20T07:53:23.370Z,79.60
2023-01-20T07:56:15.384Z,72.22
2023-01-20T07:58:48.396Z,73.45
2023-01-20T08:01:24.091Z,66.10
2023-01-20T08:03:51.946Z,76.20
2023-01-20T08:06:21.353Z,69.90
2023-01-20T08:08:48.854Z,68.22
2023-01-20T08:11:19.011Z,61.88
2023-01-20T08:13:49.588Z,66.05
2023-01-20T08:19:06.178Z,59.17
2023-01-20T08:21:35.262Z,63.40
2023-01-20T08:24:05.646Z,53.22
2023-01-20T08:26:34.685Z,54.38
2023-01-20T08:29:06.923Z,58.00
2023-01-20T08:31:41.654Z,59.40
2023-01-20T08:34:08.778Z,58.80
2023-01-20T08:36:41.365Z,56.03
2023-01-20T08:39:14.120Z,57.58
2023-01-20T08:41:43.892Z,56.90
2023-01-20T08:44:13.174Z,53.85
2023-01-20T08:46:41.979Z,57.72
2023-01-20T08:49:14.712Z,57.28
2023-01-20T08:51:45.135Z,53.97
2023-01-20T08:54:14.916Z,53.45
2023-01-20T08:56:42.519Z,49.15
2023-01-20T08:59:12.661Z,47.83
2023-01-20T09:01:39.799Z,49.35
2023-01-20T09:04:07.722Z,53.70
2023-01-20T09:06:48.720Z,48.53
2023-01-20T09:09:17.306Z,48.58
2023-01-20T09:11:58.016Z,49.92
2023-01-20T09:16:54.529Z,47.13
2023-01-20T09:19:21.542Z,46.17
2023-01-20T09:21:48.394Z,41.75
2023-01-20T09:24:15.297Z,46.05
2023-01-20T09:26:42.077Z,43.72
2023-01-20T09:29:12.398Z,49.20
2023-01-20T09:31:44.121Z,46.95
2023-01-20T09:34:15.001Z,48.40
2023-01-20T09:36:41.946Z,45.63
2023-01-20T09:39:27.887Z,47.78
2023-01-20T09:42:12.950Z,54.63
2023-01-20T09:44:57.000Z,49.83
2023-01-20T09:47:43.882Z,48.42
2023-01-20T09:50:32.175Z,48.70
2023-01-20T09:53:26.980Z,52.60
2023-01-20T09:55:59.700Z,58.72
2023-01-20T09:58:37.220Z,48.25
2023-01-20T10:01:15.945Z,49.35
2023-01-20T10:03:50.506Z,46.70
2023-01-20T10:06:25.068Z,45.85
2023-01-20T10:09:05.563Z,45.30
2023-01-20T10:11:46.502Z,45.30
2023-01-20T10:14:27.589Z,51.17
2023-01-20T10:17:20.787Z,46.00
2023-01-20T10:19:59.048Z,50.78
2023-01-20T10:22:37.705Z,57.97
2023-01-20T10:25:22.777Z,49.95
2023-01-20T10:27:55.441Z,49.13
2023-01-20T10:30:26.350Z,44.13
2023-01-20T10:33:02.683Z,42.67
2023-01-20T10:35:33.453Z,42.08
2023-01-20T10:38:00.489Z,40.97
2023-01-20T10:40:53.980Z,48.20
2023-01-20T10:43:20.992Z,49.45
2023-01-20T10:46:13.929Z,48.72
2023-01-20T10:48:49.572Z,52.67
2023-01-20T10:51:29.095Z,53.38
2023-01-20T10:54:31.225Z,51.00
2023-01-20T10:57:01.217Z,56.38
2023-01-20T10:59:41.061Z,46.38
2023-01-20T11:02:23.098Z,44.10
2023-01-20T11:05:00.383Z,47.97
2023-01-20T11:07:28.480Z,54.80
2023-01-20T11:09:55.508Z,52.90
2023-01-20T11:12:31.335Z,48.53
2023-01-20T11:15:00.733Z,46.20
2023-01-20T11:17:27.468Z,47.38
2023-01-20T11:19:56.862Z,53.50
2023-01-20T11:22:34.244Z,56.55
2023-01-20T11:25:04.157Z,57.30
2023-01-20T11:27:45.952Z,45.70
2023-01-20T11:30:40.180Z,49.50
2023-01-20T11:33:09.236Z,46.63
2023-01-20T11:35:36.200Z,46.92
2023-01-20T11:38:40.879Z,50.45
2023-01-20T11:41:21.108Z,49.90
2023-01-20T11:43:49.081Z,49.72
2023-01-20T11:46:23.725Z,55.90
2023-01-20T11:49:05.516Z,56.13
2023-01-20T11:51:32.492Z,62.60
2023-01-20T11:54:13.478Z,53.47
2023-01-20T11:56:42.980Z,55.80
2023-01-20T11:59:28.615Z,58.58
2023-01-20T12:01:57.504Z,44.00
2023-01-20T12:04:24.245Z,48.70
2023-01-20T12:07:23.567Z,44.75
2023-01-20T12:09:59.451Z,40.85
2023-01-20T12:12:40.384Z,41.05
2023-01-20T12:15:12.846Z,45.50
2023-01-20T12:17:42.048Z,47.40
2023-01-20T12:20:22.639Z,45.40
2023-01-20T12:22:58.649Z,45.42
2023-01-20T12:25:34.206Z,51.40
2023-01-20T12:28:21.737Z,56.10
2023-01-20T12:30:48.428Z,48.72
2023-01-20T12:33:29.957Z,52.03
2023-01-20T12:36:35.325Z,64.45
2023-01-20T12:39:32.991Z,58.08
2023-01-20T12:42:33.189Z,50.50
2023-01-20T12:45:27.488Z,44.35
2023-01-20T12:47:54.238Z,38.13
2023-01-20T12:50:48.583Z,40.70
2023-01-20T12:53:45.737Z,45.35
2023-01-20T12:56:37.290Z,43.55
2023-01-20T12:59:26.000Z,47.83
2023-01-20T13:02:14.497Z,51.08
2023-01-20T13:05:06.823Z,46.88
2023-01-20T13:07:42.739Z,49.00
2023-01-20T13:10:18.785Z,39.47
2023-01-20T13:12:45.584Z,45.95
2023-01-20T13:15:27.558Z,43.35
2023-01-20T13:18:23.488Z,39.72
2023-01-20T13:20:52.420Z,45.72
2023-01-20T13:23:28.363Z,35.25
2023-01-20T13:25:57.024Z,39.63
2023-01-20T13:28:29.073Z,41.30
2023-01-20T13:30:58.163Z,40.00
2023-01-20T13:33:35.352Z,35.28
2023-01-20T13:36:16.373Z,38.28
2023-01-20T13:38:43.909Z,38.80
2023-01-20T13:41:11.154Z,41.20
2023-01-20T13:43:48.670Z,41.13
2023-01-20T13:46:15.886Z,42.85
2023-01-20T13:49:12.557Z,49.80
2023-01-20T13:51:39.283Z,44.30
2023-01-20T13:54:32.742Z,50.33
2023-01-20T13:57:23.337Z,57.50
2023-01-20T13:59:50.882Z,51.88
2023-01-20T14:02:19.375Z,51.90
2023-01-20T14:04:46.734Z,49.65
2023-01-20T14:07:33.154Z,53.40
2023-01-20T14:10:01.598Z,54.03
2023-01-20T14:12:28.469Z,47.55
2023-01-20T14:14:55.526Z,49.53
2023-01-20T14:17:24.429Z,44.13
2023-01-20T14:19:54.756Z,47.38
2023-01-20T14:22:29.942Z,42.15
2023-01-20T14:24:59.135Z,39.60
2023-01-20T14:27:28.372Z,40.38
2023-01-20T14:29:59.787Z,40.55
2023-01-20T14:32:33.777Z,43.78
2023-01-20T14:35:01.954Z,43.00
2023-01-20T14:37:37.311Z,47.08
2023-01-20T14:40:10.014Z,51.53
2023-01-20T14:42:38.717Z,49.55
2023-01-20T14:45:23.484Z,57.65
2023-01-20T14:47:50.834Z,62.28
2023-01-20T14:50:19.006Z,59.22
2023-01-20T14:52:46.381Z,64.18
2023-01-20T14:55:43.450Z,53.22
2023-01-20T14:58:16.505Z,57.75
2023-01-20T15:00:44.732Z,53.75
2023-01-20T15:03:21.620Z,55.45
2023-01-20T15:06:00.000Z,62.15
2023-01-20T15:08:34.293Z,56.35
2023-01-20T15:11:19.573Z,56.95
2023-01-20T15:13:55.238Z,45.28
2023-01-20T15:16:28.026Z,36.55
2023-01-20T15:19:13.507Z,41.63
2023-01-20T15:21:46.141Z,39.47
2023-01-20T15:24:15.174Z,43.97
2023-01-20T15:26:42.817Z,43.58
2023-01-20T15:29:27.457Z,37.70
2023-01-20T15:31:56.256Z,41.03
2023-01-20T15:34:24.008Z,38.50
2023-01-20T15:36:54.237Z,40.97
2023-01-20T15:39:26.011Z,36.25
2023-01-20T15:41:55.918Z,38.53
2023-01-20T15:44:24.451Z,43.00
2023-01-20T15:46:56.829Z,53.83
2023-01-20T15:49:27.522Z,54.72
2023-01-20T15:51:54.336Z,44.30
2023-01-20T15:54:21.025Z,46.30
2023-01-20T15:56:47.818Z,40.83
2023-01-20T15:59:16.810Z,51.83
2023-01-20T16:01:49.963Z,48.67
2023-01-20T16:04:18.266Z,44.15
2023-01-20T16:06:45.293Z,46.95
2023-01-20T16:09:29.867Z,48.42
2023-01-20T16:11:56.717Z,37.35
2023-01-20T16:14:23.389Z,42.67
2023-01-20T16:16:50.154Z,38.53
2023-01-20T16:19:17.476Z,35.28
2023-01-20T16:21:45.584Z,36.30
2023-01-20T16:24:13.030Z,40.25
2023-01-20T16:26:40.583Z,38.25
2023-01-20T16:29:09.278Z,44.45
2023-01-20T16:31:36.190Z,42.63
2023-01-20T16:34:04.292Z,32.10
2023-01-20T16:36:33.680Z,34.55
2023-01-20T16:39:00.357Z,33.83
2023-01-20T16:41:30.477Z,41.67
2023-01-20T16:43:58.575Z,40.60
2023-01-20T16:46:31.636Z,33.58
2023-01-20T16:49:03.555Z,36.38
2023-01-20T16:51:31.248Z,38.42
2023-01-20T16:53:58.950Z,40.50
2023-01-20T16:56:28.386Z,33.75
2023-01-20T16:58:59.398Z,32.85
2023-01-20T17:01:27.100Z,36.28
2023-01-20T17:03:57.048Z,41.13
2023-01-20T17:06:26.561Z,42.35
2023-01-20T17:08:55.385Z,38.38
2023-01-20T17:11:22.054Z,40.20
2023-01-20T17:13:49.002Z,40.80
2023-01-20T17:16:16.904Z,38.88
2023-01-20T17:18:46.650Z,45.28
2023-01-20T17:21:14.366Z,41.77
2023-01-20T17:23:41.908Z,37.30
2023-01-20T17:26:09.267Z,38.72
2023-01-20T17:28:36.157Z,34.65
2023-01-20T17:31:04.792Z,36.75
2023-01-20T17:33:31.554Z,38.75
2023-01-20T17:36:00.799Z,41.40
2023-01-20T17:38:28.716Z,44.95
2023-01-20T17:41:00.678Z,41.10
2023-01-20T17:43:35.710Z,42.35
2023-01-20T17:46:12.811Z,38.97
2023-01-20T17:48:41.029Z,43.70
2023-01-20T17:51:19.392Z,45.75
2023-01-20T17:53:46.937Z,57.17
2023-01-20T17:56:15.085Z,45.13
2023-01-20T17:58:43.499Z,38.50
2023-01-20T18:01:11.209Z,44.38
2023-01-20T18:03:42.934Z,47.45
2023-01-20T18:06:12.200Z,39.05
2023-01-20T18:08:39.196Z,41.08
2023-01-20T18:11:09.386Z,40.33
2023-01-20T18:13:36.895Z,45.08
2023-01-20T18:16:13.179Z,40.60
2023-01-20T18:18:41.268Z,40.88
2023-01-20T18:21:19.338Z,43.13
2023-01-20T18:23:47.290Z,45.00
2023-01-20T18:26:16.197Z,44.50
2023-01-20T18:28:43.416Z,53.70
2023-01-20T18:31:15.583Z,51.63
2023-01-20T18:33:48.394Z,46.05
2023-01-20T18:36:19.969Z,50.22
2023-01-20T18:38:54.468Z,48.17
2023-01-20T18:41:22.685Z,50.20
2023-01-20T18:43:49.962Z,52.33
2023-01-20T18:46:17.204Z,45.33
2023-01-20T18:48:45.967Z,50.08
2023-01-20T18:51:15.236Z,48.53
2023-01-20T18:53:44.197Z,43.70
2023-01-20T18:56:13.746Z,45.63
2023-01-20T18:58:45.623Z,51.40
2023-01-20T19:01:14.959Z,48.15
2023-01-20T19:03:42.266Z,49.83
2023-01-20T19:06:15.028Z,45.47
2023-01-20T19:08:43.655Z,54.17
2023-01-20T19:11:19.843Z,49.67
2023-01-20T19:13:49.769Z,41.20
2023-01-20T19:16:18.778Z,38.88
2023-01-20T19:18:51.642Z,44.92
2023-01-20T19:21:18.963Z,40.05
2023-01-20T19:23:50.019Z,37.80
2023-01-20T19:26:20.457Z,37.58
2023-01-20T19:28:48.464Z,34.13
2023-01-20T19:31:18.480Z,33.40
2023-01-20T19:33:46.324Z,34.88
2023-01-20T19:36:15.832Z,36.33
2023-01-20T19:38:43.410Z,35.15
2023-01-20T19:41:21.396Z,34.63
2023-01-20T19:43:52.210Z,38.03
2023-01-20T19:46:19.857Z,39.10
2023-01-20T19:48:46.627Z,30.88
2023-01-20T19:51:16.277Z,35.08
2023-01-20T19:53:43.930Z,28.02
2023-01-20T19:57:29.941Z,31.02
2023-01-20T19:59:30.715Z,33.75
2023-01-20T20:02:15.852Z,29.48
2023-01-20T20:05:01.483Z,37.13
2023-01-20T20:08:17.472Z,31.92
2023-01-20T20:10:54.605Z,34.22
2023-01-20T20:13:59.977Z,35.60
2023-01-20T20:16:33.453Z,43.83
2023-01-20T20:22:05.469Z,34.83
2023-01-20T20:24:32.349Z,35.08
2023-01-20T20:26:59.238Z,37.33
2023-01-20T20:29:26.119Z,40.65
2023-01-20T20:31:53.075Z,35.95
2023-01-20T20:34:20.063Z,36.53
2023-01-20T20:36:47.222Z,34.47
2023-01-20T20:39:16.211Z,37.78
2023-01-20T20:41:43.678Z,37.90
2023-01-20T20:44:11.166Z,49.38
2023-01-20T20:46:38.223Z,51.53
2023-01-20T20:49:04.988Z,40.33
2023-01-20T20:51:33.887Z,38.30
2023-01-20T20:54:02.763Z,41.67
2023-01-20T20:56:32.974Z,41.08
2023-01-20T20:59:03.125Z,47.10
2023-01-20T21:04:00.787Z,50.60
2023-01-20T21:06:28.284Z,42.13
2023-01-20T21:08:55.198Z,82.57
2023-01-20T21:11:23.979Z,63.85
2023-01-20T21:13:50.900Z,48.13
2023-01-20T21:16:21.788Z,41.85
2023-01-20T21:18:49.756Z,39.53
2023-01-20T21:21:19.528Z,42.83
2023-01-20T21:23:51.497Z,54.35
2023-01-20T21:26:18.653Z,41.35
2023-01-20T21:28:45.921Z,43.95
2023-01-20T21:31:16.463Z,39.00
2023-01-20T21:33:45.862Z,43.95
2023-01-20T21:36:13.343Z,33.78
2023-01-20T21:38:46.422Z,33.65
2023-01-20T21:41:14.189Z,40.13
2023-01-20T21:44:01.592Z,41.13
2023-01-20T21:46:31.089Z,36.63
2023-01-20T21:49:16.613Z,39.08
2023-01-20T21:52:02.128Z,40.28
2023-01-20T21:54:34.542Z,43.13
2023-01-20T21:57:02.037Z,32.92
2023-01-20T21:59:29.039Z,37.33
2023-01-20T22:01:55.919Z,34.05
2023-01-20T22:04:22.620Z,33.92
2023-01-20T22:06:49.392Z,34.05
2023-01-20T22:09:16.103Z,38.00
2023-01-20T22:11:42.953Z,39.38
2023-01-20T22:14:12.712Z,33.63
2023-01-20T22:16:39.616Z,32.93
2023-01-20T22:19:06.515Z,35.33
2023-01-20T22:21:33.928Z,32.25
2023-01-20T22:24:03.913Z,29.83
2023-01-20T22:26:31.021Z,33.03
2023-01-20T22:28:58.932Z,27.65
2023-01-20T22:31:26.094Z,29.08
2023-01-20T22:33:58.456Z,26.45
2023-01-20T22:36:25.801Z,26.88
2023-01-20T22:38:53.643Z,27.02
2023-01-20T22:41:21.043Z,30.75
2023-01-20T22:43:48.401Z,31.17
2023-01-20T22:46:17.812Z,30.05
2023-01-20T22:48:45.647Z,35.42
2023-01-20T22:58:58.648Z,30.35
2023-01-20T23:25:33.852Z,21.67
2023-01-20T23:28:26.545Z,15.85
2023-01-20T23:31:19.542Z,15.15
2023-01-20T23:33:46.856Z,18.10
2023-01-20T23:36:16.702Z,14.98
2023-01-20T23:38:44.643Z,14.32
2023-01-20T23:41:16.069Z,17.77
2023-01-20T23:43:48.150Z,16.40
2023-01-20T23:46:14.940Z,14.63
2023-01-20T23:48:41.766Z,17.00
2023-01-20T23:51:11.838Z,14.32
2023-01-20T23:53:40.576Z,13.82
2023-01-20T23:56:12.633Z,13.85
2023-01-20T23:58:39.952Z,16.42
